createdAt,value
2019-05-16T00:01:10.176Z,9.70
2019-05-16T00:03:48.993Z,9.70
2019-05-16T00:06:25.610Z,9.60
2019-05-16T00:08:55.471Z,9.60
2019-05-16T00:11:29.168Z,9.60
2019-05-16T00:13:58.089Z,9.60
2019-05-16T00:16:29.590Z,9.60
2019-05-16T00:18:58.408Z,9.60
2019-05-16T00:21:28.652Z,9.50
2019-05-16T00:23:58.647Z,9.50
2019-05-16T00:26:28.208Z,9.50
2019-05-16T00:29:00.152Z,9.50
2019-05-16T00:31:30.965Z,9.50
2019-05-16T00:34:06.195Z,9.50
2019-05-16T00:36:54.126Z,9.50
2019-05-16T00:39:28.019Z,9.40
2019-05-16T00:41:58.224Z,9.40
2019-05-16T00:44:30.532Z,9.40
2019-05-16T00:46:58.712Z,9.40
2019-05-16T00:49:28.319Z,9.40
2019-05-16T00:51:59.908Z,9.40
2019-05-16T00:54:38.672Z,9.40
2019-05-16T00:57:09.274Z,9.40
2019-05-16T00:59:39.149Z,9.40
2019-05-16T01:02:08.964Z,9.30
2019-05-16T01:04:38.658Z,9.40
2019-05-16T01:07:08.499Z,9.30
2019-05-16T01:09:38.565Z,9.30
2019-05-16T01:12:09.701Z,9.30
2019-05-16T01:14:40.632Z,9.30
2019-05-16T01:17:09.392Z,9.30
2019-05-16T01:19:38.434Z,9.30
2019-05-16T01:22:08.354Z,9.30
2019-05-16T01:24:38.585Z,9.30
2019-05-16T01:27:13.579Z,9.30
2019-05-16T01:29:42.798Z,9.30
2019-05-16T01:32:12.284Z,9.20
2019-05-16T01:34:44.594Z,9.20
2019-05-16T01:37:18.568Z,9.30
2019-05-16T01:39:50.523Z,9.20
2019-05-16T01:42:22.312Z,9.30
2019-05-16T01:44:52.670Z,9.30
2019-05-16T01:47:21.808Z,9.30
2019-05-16T01:50:08.538Z,9.20
2019-05-16T01:52:38.257Z,9.30
2019-05-16T01:55:08.519Z,9.30
2019-05-16T01:57:39.177Z,9.20
2019-05-16T02:00:12.208Z,9.20
2019-05-16T02:02:41.055Z,9.20
2019-05-16T02:05:09.767Z,9.20
2019-05-16T02:07:41.565Z,9.20
2019-05-16T02:10:17.895Z,9.20
2019-05-16T02:12:59.074Z,9.20
2019-05-16T02:15:28.594Z,9.20
2019-05-16T02:18:14.445Z,9.20
2019-05-16T02:20:43.656Z,9.20
2019-05-16T02:23:12.099Z,9.20
2019-05-16T02:25:44.340Z,9.20
2019-05-16T02:28:21.036Z,9.20
2019-05-16T02:30:51.415Z,9.20
2019-05-16T02:33:25.128Z,9.20
2019-05-16T02:35:55.642Z,9.20
2019-05-16T02:38:24.203Z,9.20
2019-05-16T02:40:55.105Z,9.20
2019-05-16T02:43:26.050Z,9.20
2019-05-16T02:45:54.144Z,9.20
2019-05-16T02:48:27.088Z,9.20
2019-05-16T02:51:01.782Z,9.20
2019-05-16T02:53:31.025Z,9.20
2019-05-16T02:56:01.337Z,9.20
2019-05-16T02:58:44.276Z,9.20
2019-05-16T03:01:10.788Z,9.20
2019-05-16T03:03:44.131Z,9.20
2019-05-16T03:06:20.908Z,9.20
2019-05-16T03:08:50.746Z,9.10
2019-05-16T03:11:21.138Z,9.10
2019-05-16T03:13:54.143Z,9.20
2019-05-16T03:16:23.733Z,9.10
2019-05-16T03:18:53.815Z,9.10
2019-05-16T03:21:23.561Z,9.10
2019-05-16T03:23:52.379Z,9.20
2019-05-16T03:26:23.578Z,9.10
2019-05-16T03:28:56.090Z,9.10
2019-05-16T03:31:33.677Z,9.20
2019-05-16T03:34:06.570Z,9.10
2019-05-16T03:36:34.856Z,9.10
2019-05-16T03:39:10.739Z,9.10
2019-05-16T03:41:41.493Z,9.10
2019-05-16T03:44:11.288Z,9.10
2019-05-16T03:46:43.996Z,9.10
2019-05-16T03:49:15.733Z,9.10
2019-05-16T03:52:01.844Z,9.10
2019-05-16T03:54:35.165Z,9.20
2019-05-16T03:57:14.435Z,9.20
2019-05-16T03:59:42.696Z,9.20
2019-05-16T04:02:15.560Z,9.30
2019-05-16T04:04:50.867Z,9.30
2019-05-16T04:07:22.721Z,9.30
2019-05-16T04:10:02.375Z,9.30
2019-05-16T04:12:42.100Z,9.20
2019-05-16T04:15:23.115Z,9.30
2019-05-16T04:18:01.497Z,9.30
2019-05-16T04:20:33.676Z,9.30
2019-05-16T04:23:03.144Z,9.40
2019-05-16T04:25:31.920Z,9.40
2019-05-16T04:28:11.593Z,9.40
2019-05-16T04:30:41.640Z,9.30
2019-05-16T04:33:11.520Z,9.30
2019-05-16T04:35:41.244Z,9.30
2019-05-16T04:38:40.855Z,9.30
2019-05-16T04:40:51.558Z,9.40
2019-05-16T04:43:50.993Z,9.40
2019-05-16T04:46:22.484Z,9.50
2019-05-16T04:48:52.507Z,9.50
2019-05-16T04:51:24.096Z,9.60
2019-05-16T04:53:57.615Z,9.60
2019-05-16T04:56:25.791Z,9.70
2019-05-16T04:58:56.924Z,9.70
2019-05-16T05:01:30.738Z,9.70
2019-05-16T05:04:08.798Z,9.70
2019-05-16T05:06:31.227Z,9.70
2019-05-16T05:09:03.292Z,9.70
2019-05-16T05:11:31.417Z,9.70
2019-05-16T05:14:02.303Z,9.70
2019-05-16T05:16:31.146Z,9.70
2019-05-16T05:19:05.000Z,9.80
2019-05-16T05:21:33.441Z,9.80
2019-05-16T05:24:01.474Z,9.80
2019-05-16T05:26:30.553Z,9.90
2019-05-16T05:29:03.449Z,9.90
2019-05-16T05:31:35.125Z,9.90
2019-05-16T05:34:10.802Z,10.00
2019-05-16T05:36:41.111Z,10.00
2019-05-16T05:39:14.851Z,10.20
2019-05-16T05:41:40.060Z,10.20
2019-05-16T05:44:10.658Z,10.30
2019-05-16T05:46:50.982Z,10.40
2019-05-16T05:49:21.419Z,10.50
2019-05-16T05:51:50.113Z,10.60
2019-05-16T05:54:20.352Z,10.80
2019-05-16T05:56:50.106Z,10.80
2019-05-16T05:59:21.819Z,10.90
2019-05-16T06:01:51.702Z,11.00
2019-05-16T06:04:19.904Z,11.10
2019-05-16T06:06:50.343Z,11.10
2019-05-16T06:09:26.242Z,11.10
2019-05-16T06:11:50.196Z,11.10
2019-05-16T06:17:30.709Z,11.20
2019-05-16T06:20:00.303Z,11.20
2019-05-16T06:22:30.953Z,11.30
2019-05-16T06:25:01.127Z,11.30
2019-05-16T06:27:30.440Z,11.30
2019-05-16T06:30:00.667Z,11.40
2019-05-16T06:32:30.395Z,11.40
2019-05-16T06:35:00.059Z,11.50
2019-05-16T06:37:31.068Z,11.50
2019-05-16T06:40:00.699Z,11.60
2019-05-16T06:42:30.179Z,11.60
2019-05-16T06:45:01.061Z,11.60
2019-05-16T06:47:30.479Z,11.60
2019-05-16T06:50:00.264Z,11.60
2019-05-16T06:52:31.740Z,11.60
2019-05-16T06:55:00.843Z,11.60
2019-05-16T06:57:32.220Z,11.70
2019-05-16T07:00:01.368Z,11.70
2019-05-16T07:02:33.604Z,11.80
2019-05-16T07:05:02.351Z,11.80
2019-05-16T07:07:34.295Z,11.80
2019-05-16T07:10:04.670Z,11.80
2019-05-16T07:12:35.929Z,11.70
2019-05-16T07:15:11.911Z,11.60
2019-05-16T07:17:40.420Z,11.60
2019-05-16T07:20:10.451Z,11.50
2019-05-16T07:22:40.674Z,11.50
2019-05-16T07:25:10.550Z,11.50
2019-05-16T07:27:40.269Z,11.50
2019-05-16T07:30:10.927Z,11.60
2019-05-16T07:32:40.765Z,11.70
2019-05-16T07:35:09.986Z,11.80
2019-05-16T07:37:39.995Z,12.00
2019-05-16T07:40:19.303Z,11.90
2019-05-16T07:49:01.156Z,12.10
2019-05-16T07:51:31.029Z,12.00
2019-05-16T07:53:59.770Z,11.90
2019-05-16T07:56:30.679Z,11.90
2019-05-16T07:58:57.695Z,11.90
2019-05-16T08:01:26.130Z,11.80
2019-05-16T08:03:55.188Z,11.80
2019-05-16T08:06:27.910Z,11.80
2019-05-16T08:08:55.778Z,11.90
2019-05-16T08:11:23.850Z,12.00
2019-05-16T08:13:52.632Z,12.10
2019-05-16T08:16:23.960Z,12.20
2019-05-16T08:31:15.288Z,12.40
2019-05-16T08:33:46.734Z,12.40
2019-05-16T08:38:51.470Z,12.20
2019-05-16T08:41:22.043Z,12.10
2019-05-16T08:43:53.206Z,12.10
2019-05-16T08:46:20.736Z,12.10
2019-05-16T08:48:53.852Z,12.10
2019-05-16T08:50:05.862Z,12.30
2019-05-16T08:51:22.353Z,12.10
2019-05-16T08:53:50.888Z,12.10
2019-05-16T08:56:22.268Z,12.20
2019-05-16T08:58:55.025Z,12.30
2019-05-16T09:01:57.654Z,12.40
2019-05-16T09:04:24.464Z,12.40
2019-05-16T09:06:55.750Z,12.40
2019-05-16T09:09:42.762Z,12.40
2019-05-16T09:12:18.213Z,12.40
2019-05-16T09:14:54.121Z,12.60
2019-05-16T09:17:38.371Z,12.70
2019-05-16T09:20:08.892Z,12.80
2019-05-16T09:22:37.992Z,12.90
2019-05-16T09:25:11.457Z,13.00
2019-05-16T09:27:47.154Z,13.00
2019-05-16T09:30:23.862Z,12.90
2019-05-16T09:32:52.175Z,12.70
2019-05-16T09:35:22.446Z,12.60
2019-05-16T09:37:51.831Z,12.40
2019-05-16T09:43:58.867Z,12.20
2019-05-16T09:46:33.375Z,12.10
2019-05-16T09:55:24.115Z,11.30
2019-05-16T09:57:48.325Z,11.10
2019-05-16T10:00:26.919Z,11.00
2019-05-16T10:02:57.983Z,11.10
2019-05-16T10:05:49.357Z,11.20
2019-05-16T10:08:37.528Z,11.30
2019-05-16T10:11:23.880Z,11.40
2019-05-16T10:29:43.889Z,12.10
2019-05-16T10:32:18.312Z,12.60
2019-05-16T10:34:57.189Z,13.00
2019-05-16T10:37:27.397Z,13.20
2019-05-16T10:40:31.477Z,13.20
2019-05-16T10:43:07.179Z,13.20
2019-05-16T10:45:58.373Z,13.00
2019-05-16T10:49:16.609Z,13.00
2019-05-16T10:51:47.004Z,13.00
2019-05-16T10:54:18.259Z,13.00
2019-05-16T10:56:49.828Z,13.00
2019-05-16T11:01:51.198Z,13.00
2019-05-16T11:04:33.530Z,13.00
2019-05-16T11:06:49.575Z,13.00
2019-05-16T11:09:20.770Z,12.80
2019-05-16T11:12:09.539Z,12.70
2019-05-16T11:14:38.429Z,12.50
2019-05-16T11:17:18.830Z,12.30
2019-05-16T11:19:46.502Z,12.10
2019-05-16T11:22:17.864Z,11.90
2019-05-16T11:24:47.105Z,11.70
2019-05-16T11:27:17.342Z,11.50
2019-05-16T11:29:47.967Z,11.40
2019-05-16T11:32:16.471Z,11.30
2019-05-16T11:38:13.514Z,11.20
2019-05-16T11:40:47.901Z,11.10
2019-05-16T11:43:21.739Z,11.00
2019-05-16T11:45:49.880Z,10.90
2019-05-16T11:48:25.211Z,10.80
2019-05-16T11:50:56.745Z,10.80
2019-05-16T11:53:32.340Z,10.70
2019-05-16T11:56:03.407Z,10.50
2019-05-16T11:58:41.617Z,10.40
2019-05-16T12:01:08.995Z,10.40
2019-05-16T12:03:37.583Z,10.30
2019-05-16T12:06:10.814Z,10.30
2019-05-16T12:08:46.611Z,10.30
2019-05-16T12:11:17.851Z,10.20
2019-05-16T12:13:49.757Z,10.20
2019-05-16T12:16:27.790Z,10.20
2019-05-16T12:19:10.522Z,10.10
2019-05-16T12:21:51.444Z,10.20
2019-05-16T12:24:35.388Z,10.30
2019-05-16T12:30:46.971Z,10.70
2019-05-16T12:33:19.076Z,11.00
2019-05-16T12:38:49.640Z,11.70
2019-05-16T12:44:29.667Z,12.10
2019-05-16T12:47:07.568Z,12.00
2019-05-16T12:49:39.560Z,11.90
2019-05-16T12:52:11.871Z,11.70
2019-05-16T12:55:07.411Z,11.70
2019-05-16T12:57:49.446Z,11.50
2019-05-16T13:00:57.772Z,11.40
2019-05-16T13:03:22.463Z,11.20
2019-05-16T13:18:47.612Z,10.80
2019-05-16T13:33:27.183Z,11.00
2019-05-16T13:34:33.094Z,11.20
2019-05-16T13:37:07.464Z,11.30
2019-05-16T13:39:47.566Z,11.40
2019-05-16T13:42:21.197Z,11.40
2019-05-16T13:44:54.865Z,11.40
2019-05-16T13:47:26.842Z,11.50
2019-05-16T13:49:55.786Z,11.50
2019-05-16T13:52:30.761Z,11.60
2019-05-16T13:54:58.988Z,11.70
2019-05-16T13:57:29.400Z,12.00
2019-05-16T13:59:59.576Z,12.30
2019-05-16T14:02:37.465Z,12.60
2019-05-16T14:05:07.719Z,12.90
2019-05-16T14:07:37.473Z,13.20
2019-05-16T14:10:07.036Z,13.30
2019-05-16T14:12:36.746Z,13.40
2019-05-16T14:15:08.136Z,13.50
2019-05-16T14:17:37.020Z,13.60
2019-05-16T14:23:17.635Z,13.60
2019-05-16T14:25:48.186Z,13.60
2019-05-16T14:28:17.254Z,13.50
2019-05-16T14:30:46.765Z,13.50
2019-05-16T14:33:17.212Z,13.40
2019-05-16T14:35:47.312Z,13.40
2019-05-16T14:38:17.313Z,13.40
2019-05-16T14:40:50.019Z,13.40
2019-05-16T14:43:17.125Z,13.40
2019-05-16T14:45:46.660Z,13.30
2019-05-16T14:48:14.677Z,13.40
2019-05-16T14:50:42.865Z,13.50
2019-05-16T14:53:10.922Z,13.70
2019-05-16T14:55:39.477Z,14.00
2019-05-16T14:58:07.800Z,14.20
2019-05-16T15:00:38.223Z,14.40
2019-05-16T15:03:09.991Z,14.40
2019-05-16T15:05:42.379Z,14.50
2019-05-16T15:08:10.336Z,14.50
2019-05-16T15:10:38.782Z,14.60
2019-05-16T15:13:07.893Z,14.70
2019-05-16T15:15:40.042Z,14.60
2019-05-16T15:18:08.568Z,14.50
2019-05-16T15:20:37.130Z,14.40
2019-05-16T15:23:07.619Z,14.30
2019-05-16T15:25:37.739Z,14.20
2019-05-16T15:28:07.541Z,14.10
2019-05-16T15:30:39.055Z,14.00
2019-05-16T15:33:08.159Z,14.00
2019-05-16T15:35:37.936Z,13.90
2019-05-16T15:38:07.774Z,13.50
2019-05-16T15:40:37.609Z,13.30
2019-05-16T15:43:07.997Z,13.10
2019-05-16T15:45:45.048Z,13.00
2019-05-16T15:48:13.240Z,12.90
2019-05-16T15:50:42.086Z,12.90
2019-05-16T15:53:10.060Z,13.00
2019-05-16T15:55:42.097Z,13.00
2019-05-16T15:58:10.681Z,13.20
2019-05-16T16:00:47.464Z,13.30
2019-05-16T16:03:14.663Z,13.30
2019-05-16T16:05:47.582Z,13.30
2019-05-16T16:08:18.191Z,13.20
2019-05-16T16:10:47.916Z,13.20
2019-05-16T16:13:19.792Z,13.10
2019-05-16T16:15:51.457Z,13.00
2019-05-16T16:18:19.550Z,12.90
2019-05-16T16:21:16.692Z,12.80
2019-05-16T16:23:47.519Z,12.60
2019-05-16T16:26:17.770Z,12.30
2019-05-16T16:28:46.643Z,12.20
2019-05-16T16:31:18.429Z,12.00
2019-05-16T16:33:47.385Z,12.00
2019-05-16T16:36:17.100Z,12.00
2019-05-16T16:38:47.682Z,12.00
2019-05-16T16:41:18.432Z,11.90
2019-05-16T16:43:57.060Z,11.90
2019-05-16T16:46:28.579Z,11.90
2019-05-16T16:48:57.723Z,11.80
2019-05-16T16:51:28.829Z,11.80
2019-05-16T16:54:02.701Z,11.80
2019-05-16T16:56:47.272Z,11.80
2019-05-16T16:59:20.197Z,11.80
2019-05-16T17:01:48.904Z,11.80
2019-05-16T17:04:22.815Z,11.80
2019-05-16T17:07:00.385Z,11.80
2019-05-16T17:09:30.841Z,11.80
2019-05-16T17:12:15.670Z,11.80
2019-05-16T17:14:46.484Z,11.70
2019-05-16T17:17:18.766Z,11.70
2019-05-16T17:19:49.724Z,11.60
2019-05-16T17:22:20.993Z,11.60
2019-05-16T17:24:48.906Z,11.60
2019-05-16T17:27:17.002Z,11.60
2019-05-16T17:29:47.448Z,11.50
2019-05-16T17:32:16.664Z,11.40
2019-05-16T17:38:10.241Z,11.30
2019-05-16T17:40:41.118Z,11.30
2019-05-16T17:43:08.578Z,11.20
2019-05-16T17:45:37.540Z,11.20
2019-05-16T17:48:08.132Z,11.20
2019-05-16T17:50:38.838Z,11.10
2019-05-16T17:53:07.803Z,11.40
2019-05-16T17:56:00.089Z,11.70
2019-05-16T17:58:28.378Z,11.90
2019-05-16T18:01:06.809Z,12.10
2019-05-16T18:07:09.097Z,12.00
2019-05-16T18:09:37.993Z,11.60
2019-05-16T18:12:08.870Z,11.30
2019-05-16T18:14:48.518Z,11.30
2019-05-16T18:17:23.873Z,11.20
2019-05-16T18:20:33.861Z,11.10
2019-05-16T18:29:37.200Z,10.90
2019-05-16T18:32:20.231Z,10.90
2019-05-16T18:34:51.248Z,10.90
2019-05-16T18:37:34.945Z,10.90
2019-05-16T18:43:26.974Z,10.80
2019-05-16T18:46:07.299Z,10.80
2019-05-16T18:48:36.662Z,10.80
2019-05-16T18:51:20.809Z,10.80
2019-05-16T20:04:32.277Z,10.40
2019-05-16T20:07:45.655Z,10.30
2019-05-16T20:10:47.818Z,10.40
2019-05-16T20:13:56.687Z,10.40
2019-05-16T20:27:05.149Z,10.30
2019-05-16T20:34:37.719Z,10.20
2019-05-16T20:44:10.988Z,10.20
2019-05-16T20:46:46.759Z,10.10
2019-05-16T20:50:26.574Z,10.10
2019-05-16T20:52:57.418Z,10.10
2019-05-16T20:56:52.696Z,10.10
2019-05-16T20:58:21.610Z,10.10
2019-05-16T21:01:51.547Z,10.10
2019-05-16T21:05:10.220Z,10.10
2019-05-16T21:07:28.224Z,10.10
2019-05-16T21:10:40.018Z,10.10
2019-05-16T21:27:05.199Z,10.10
2019-05-16T21:47:59.365Z,10.00
2019-05-16T22:18:07.259Z,10.00
2019-05-16T22:21:39.154Z,10.10
2019-05-16T22:27:57.774Z,10.10
2019-05-16T22:32:03.332Z,10.10
2019-05-16T22:37:49.264Z,10.10
2019-05-16T22:43:39.074Z,10.10
2019-05-16T22:50:37.507Z,10.10
